createdAt,value
2022-10-10T00:00:49.420Z,86.45
2022-10-10T00:03:17.201Z,86.13
2022-10-10T00:05:44.143Z,86.83
2022-10-10T00:08:10.631Z,86.66
2022-10-10T00:10:37.701Z,85.98
2022-10-10T00:13:05.441Z,86.45
2022-10-10T00:15:32.758Z,86.19
2022-10-10T00:17:59.169Z,86.87
2022-10-10T00:20:25.572Z,86.37
2022-10-10T00:22:52.400Z,86.02
2022-10-10T00:25:19.080Z,85.75
2022-10-10T00:27:45.457Z,86.35
2022-10-10T00:30:12.077Z,86.79
2022-10-10T00:32:38.496Z,86.41
2022-10-10T00:35:06.114Z,86.03
2022-10-10T00:37:32.692Z,86.03
2022-10-10T00:39:59.137Z,86.01
2022-10-10T00:42:25.669Z,85.77
2022-10-10T00:45:21.625Z,86.55
2022-10-10T00:47:49.916Z,86.07
2022-10-10T00:50:19.075Z,86.25
2022-10-10T00:52:46.272Z,86.04
2022-10-10T00:55:13.812Z,85.60
2022-10-10T00:57:41.072Z,85.86
2022-10-10T01:00:08.323Z,85.54
2022-10-10T01:02:34.786Z,85.21
2022-10-10T01:05:01.186Z,86.03
2022-10-10T01:07:30.846Z,85.39
2022-10-10T01:10:01.506Z,85.46
2022-10-10T01:12:33.733Z,85.53
2022-10-10T01:15:08.915Z,85.17
2022-10-10T01:17:44.118Z,85.53
2022-10-10T01:20:28.513Z,85.40
2022-10-10T01:23:09.774Z,85.73
2022-10-10T01:25:36.106Z,86.78
2022-10-10T01:28:12.367Z,86.37
2022-10-10T01:30:41.292Z,85.71
2022-10-10T01:33:17.217Z,86.66
2022-10-10T01:35:50.853Z,87.09
2022-10-10T01:38:38.232Z,87.19
2022-10-10T01:41:11.378Z,87.02
2022-10-10T01:43:37.822Z,86.52
2022-10-10T01:46:16.561Z,86.01
2022-10-10T01:48:46.586Z,85.67
2022-10-10T01:51:23.561Z,85.44
2022-10-10T01:53:58.719Z,85.60
2022-10-10T01:56:46.689Z,85.95
2022-10-10T01:59:28.944Z,85.95
2022-10-10T02:02:03.549Z,86.59
2022-10-10T02:04:51.135Z,86.67
2022-10-10T02:07:31.389Z,87.06
2022-10-10T02:10:00.573Z,87.33
2022-10-10T02:12:29.524Z,87.28
2022-10-10T02:15:03.021Z,86.99
2022-10-10T02:17:30.409Z,86.68
2022-10-10T02:19:59.629Z,86.09
2022-10-10T02:22:28.518Z,86.86
2022-10-10T02:24:55.633Z,86.20
2022-10-10T02:27:28.493Z,86.70
2022-10-10T02:29:58.830Z,86.19
2022-10-10T02:32:49.314Z,86.41
2022-10-10T02:35:24.347Z,86.29
2022-10-10T02:37:52.973Z,86.56
2022-10-10T02:40:24.172Z,86.61
2022-10-10T02:42:53.065Z,86.36
2022-10-10T02:45:20.976Z,86.40
2022-10-10T02:47:47.641Z,86.52
2022-10-10T02:50:14.264Z,85.94
2022-10-10T02:52:40.978Z,85.97
2022-10-10T02:55:07.681Z,86.12
2022-10-10T02:57:34.073Z,86.30
2022-10-10T03:00:01.675Z,85.61
2022-10-10T03:02:28.138Z,85.87
2022-10-10T03:04:54.492Z,86.61
2022-10-10T03:07:20.858Z,86.04
2022-10-10T03:09:47.201Z,86.58
2022-10-10T03:12:13.564Z,86.94
2022-10-10T03:14:39.920Z,87.07
2022-10-10T03:17:06.342Z,87.15
2022-10-10T03:19:32.780Z,88.28
2022-10-10T03:21:59.166Z,88.29
2022-10-10T03:24:26.100Z,88.26
2022-10-10T03:26:52.521Z,87.87
2022-10-10T03:29:18.907Z,87.70
2022-10-10T03:31:45.279Z,87.94
2022-10-10T03:34:11.700Z,87.78
2022-10-10T03:36:38.096Z,88.07
2022-10-10T03:39:05.349Z,88.03
2022-10-10T03:41:31.801Z,88.05
2022-10-10T03:43:58.202Z,87.77
2022-10-10T03:46:24.948Z,87.24
2022-10-10T03:48:51.857Z,87.85
2022-10-10T03:51:18.349Z,87.21
2022-10-10T03:53:44.755Z,86.81
2022-10-10T03:56:11.484Z,87.31
2022-10-10T03:58:38.080Z,87.52
2022-10-10T04:01:06.249Z,86.93
2022-10-10T04:03:32.714Z,87.47
2022-10-10T04:05:59.186Z,88.26
2022-10-10T04:08:25.681Z,88.03
2022-10-10T04:10:53.755Z,87.37
2022-10-10T04:13:21.435Z,88.09
2022-10-10T04:15:51.989Z,88.20
2022-10-10T04:18:19.306Z,88.43
2022-10-10T04:20:45.699Z,87.67
2022-10-10T04:23:12.102Z,87.61
2022-10-10T04:25:38.488Z,87.86
2022-10-10T04:28:05.066Z,87.88
2022-10-10T04:30:33.945Z,87.59
2022-10-10T04:33:00.373Z,88.61
2022-10-10T04:35:26.768Z,88.56
2022-10-10T04:37:53.493Z,89.40
2022-10-10T04:40:25.461Z,89.59
2022-10-10T04:42:53.541Z,89.86
2022-10-10T04:45:20.141Z,90.28
2022-10-10T04:47:46.533Z,90.55
2022-10-10T04:50:12.916Z,89.95
2022-10-10T04:52:39.339Z,89.97
2022-10-10T04:55:05.906Z,89.45
2022-10-10T04:57:32.338Z,89.45
2022-10-10T04:59:59.380Z,89.24
2022-10-10T05:02:25.739Z,89.24
2022-10-10T05:04:52.231Z,88.93
2022-10-10T05:07:18.591Z,89.65
2022-10-10T05:09:44.960Z,90.08
2022-10-10T05:12:11.320Z,89.95
2022-10-10T05:14:37.991Z,90.08
2022-10-10T05:17:04.676Z,91.15
2022-10-10T05:19:31.046Z,91.11
2022-10-10T05:21:57.494Z,89.94
2022-10-10T05:24:24.075Z,89.95
2022-10-10T05:26:50.612Z,89.48
2022-10-10T05:29:17.051Z,89.75
2022-10-10T05:31:43.514Z,89.48
2022-10-10T05:34:13.513Z,90.62
2022-10-10T05:36:42.757Z,90.95
2022-10-10T05:39:09.769Z,91.29
2022-10-10T05:41:36.137Z,91.51
2022-10-10T05:44:02.558Z,92.58
2022-10-10T05:46:28.987Z,92.24
2022-10-10T05:48:55.595Z,92.05
2022-10-10T05:51:22.006Z,91.96
2022-10-10T05:53:48.622Z,92.38
2022-10-10T05:56:16.967Z,92.90
2022-10-10T05:58:44.559Z,92.96
2022-10-10T06:01:11.233Z,92.95
2022-10-10T06:03:37.725Z,93.54
2022-10-10T06:06:04.255Z,93.43
2022-10-10T06:08:32.326Z,93.35
2022-10-10T06:11:03.594Z,93.34
2022-10-10T06:13:29.920Z,93.27
2022-10-10T06:15:56.373Z,93.68
2022-10-10T06:18:22.770Z,94.03
2022-10-10T06:20:49.168Z,94.17
2022-10-10T06:23:16.305Z,95.03
2022-10-10T06:25:42.674Z,95.06
2022-10-10T06:28:10.100Z,95.59
2022-10-10T06:30:44.727Z,95.33
2022-10-10T06:33:12.208Z,96.07
2022-10-10T06:35:40.841Z,96.26
2022-10-10T06:38:07.363Z,97.74
2022-10-10T06:40:34.034Z,96.65
2022-10-10T06:43:00.596Z,95.72
2022-10-10T06:45:27.018Z,96.21
2022-10-10T06:47:53.469Z,96.89
2022-10-10T06:50:19.862Z,97.84
2022-10-10T06:52:46.274Z,98.19
2022-10-10T06:55:12.676Z,97.65
2022-10-10T06:57:39.033Z,98.11
2022-10-10T07:00:05.985Z,98.33
2022-10-10T07:02:32.359Z,100.00
2022-10-10T07:04:58.742Z,100.00
2022-10-10T07:07:25.260Z,99.35
2022-10-10T07:09:51.632Z,98.65
2022-10-10T07:12:18.009Z,97.92
2022-10-10T07:14:44.382Z,98.30
2022-10-10T07:17:10.782Z,98.19
2022-10-10T07:19:37.772Z,98.47
2022-10-10T07:22:04.165Z,99.49
2022-10-10T07:24:31.340Z,100.00
2022-10-10T07:27:04.787Z,100.00
2022-10-10T07:29:33.521Z,100.00
2022-10-10T07:31:59.924Z,100.00
2022-10-10T07:34:27.005Z,100.00
2022-10-10T07:36:53.442Z,100.00
2022-10-10T07:39:24.221Z,100.00
2022-10-10T07:41:51.845Z,100.00
2022-10-10T07:44:18.965Z,100.00
2022-10-10T07:46:45.993Z,100.00
2022-10-10T07:49:12.687Z,100.00
2022-10-10T07:51:39.267Z,100.00
2022-10-10T07:54:06.264Z,100.00
2022-10-10T07:56:32.717Z,100.00
2022-10-10T07:59:00.205Z,100.00
2022-10-10T08:01:27.022Z,100.00
2022-10-10T08:03:56.898Z,100.00
2022-10-10T08:06:23.903Z,100.00
2022-10-10T08:08:51.973Z,100.00
2022-10-10T08:11:20.837Z,100.00
2022-10-10T08:13:47.226Z,100.00
2022-10-10T08:16:13.718Z,100.00
2022-10-10T08:18:40.089Z,100.00
2022-10-10T08:21:12.586Z,100.00
2022-10-10T08:23:39.505Z,100.00
2022-10-10T08:26:08.864Z,100.00
2022-10-10T08:28:36.238Z,100.00
2022-10-10T08:31:11.865Z,100.00
2022-10-10T08:33:38.962Z,100.00
2022-10-10T08:36:17.613Z,100.00
2022-10-10T08:38:44.532Z,100.00
2022-10-10T08:41:24.317Z,100.00
2022-10-10T08:43:55.846Z,100.00
2022-10-10T08:46:31.608Z,100.00
2022-10-10T08:49:01.070Z,100.00
2022-10-10T08:51:32.094Z,100.00
2022-10-10T08:54:04.658Z,100.00
2022-10-10T08:56:33.018Z,100.00
2022-10-10T08:59:14.120Z,100.00
2022-10-10T09:02:17.785Z,100.00
2022-10-10T09:04:30.353Z,100.00
2022-10-10T09:07:19.503Z,100.00
2022-10-10T09:10:06.174Z,100.00
2022-10-10T09:12:59.081Z,100.00
2022-10-10T09:15:37.215Z,100.00
2022-10-10T09:18:06.389Z,100.00
2022-10-10T09:20:44.874Z,100.00
2022-10-10T09:23:17.256Z,100.00
2022-10-10T09:25:50.787Z,100.00
2022-10-10T09:28:33.676Z,100.00
2022-10-10T09:31:01.749Z,100.00
2022-10-10T09:33:35.718Z,100.00
2022-10-10T09:36:06.874Z,100.00
2022-10-10T09:38:42.574Z,100.00
2022-10-10T09:41:18.414Z,100.00
2022-10-10T09:43:44.900Z,100.00
2022-10-10T09:46:11.370Z,100.00
2022-10-10T09:48:40.322Z,98.96
2022-10-10T09:51:13.220Z,97.97
2022-10-10T09:53:40.874Z,97.98
2022-10-10T09:56:14.831Z,97.00
2022-10-10T09:58:41.158Z,96.94
2022-10-10T10:01:24.339Z,96.60
2022-10-10T10:04:26.894Z,96.32
2022-10-10T10:07:26.354Z,94.67
2022-10-10T10:09:59.216Z,94.06
2022-10-10T10:12:38.485Z,92.43
2022-10-10T10:15:16.848Z,92.25
2022-10-10T10:17:43.330Z,91.03
2022-10-10T10:20:36.009Z,90.73
2022-10-10T10:23:02.392Z,90.99
2022-10-10T10:25:38.565Z,91.61
2022-10-10T10:28:11.131Z,90.40
2022-10-10T10:30:39.278Z,90.60
2022-10-10T10:33:16.225Z,91.11
2022-10-10T10:36:07.444Z,89.11
2022-10-10T10:38:48.438Z,89.27
2022-10-10T10:41:36.445Z,87.65
2022-10-10T10:44:26.634Z,89.03
2022-10-10T10:47:13.778Z,88.50
2022-10-10T10:49:50.065Z,88.02
2022-10-10T10:52:54.743Z,89.46
2022-10-10T10:55:45.350Z,88.75
2022-10-10T10:59:09.884Z,87.96
2022-10-10T11:01:38.960Z,88.21
2022-10-10T11:05:21.128Z,89.11
2022-10-10T11:07:22.354Z,89.31
2022-10-10T11:09:59.837Z,89.65
2022-10-10T11:12:37.556Z,89.38
2022-10-10T11:15:19.202Z,89.22
2022-10-10T11:17:55.274Z,86.14
2022-10-10T11:20:30.932Z,85.53
2022-10-10T11:23:12.950Z,86.82
2022-10-10T11:25:52.186Z,85.96
2022-10-10T11:28:29.255Z,87.28
2022-10-10T11:31:08.164Z,87.35
2022-10-10T11:33:40.774Z,87.77
2022-10-10T11:36:20.240Z,89.87
2022-10-10T11:39:15.458Z,86.38
2022-10-10T11:42:19.848Z,87.99
2022-10-10T11:44:53.075Z,87.33
2022-10-10T11:47:29.401Z,86.65
2022-10-10T11:49:58.929Z,88.59
2022-10-10T11:52:34.918Z,89.20
2022-10-10T11:55:10.299Z,86.95
2022-10-10T11:57:49.912Z,85.51
2022-10-10T12:00:17.965Z,86.96
2022-10-10T12:02:46.461Z,86.10
2022-10-10T12:05:24.944Z,86.11
2022-10-10T12:07:57.654Z,86.81
2022-10-10T12:10:55.153Z,86.82
2022-10-10T12:13:30.578Z,86.31
2022-10-10T12:16:02.298Z,86.20
2022-10-10T12:18:45.689Z,84.50
2022-10-10T12:21:15.874Z,82.74
2022-10-10T12:23:48.167Z,83.52
2022-10-10T12:26:20.985Z,84.21
2022-10-10T12:29:10.467Z,84.48
2022-10-10T12:31:37.844Z,85.55
2022-10-10T12:34:16.796Z,86.57
2022-10-10T12:36:55.568Z,85.47
2022-10-10T12:39:21.882Z,84.77
2022-10-10T12:41:48.216Z,84.03
2022-10-10T12:44:14.544Z,84.72
2022-10-10T12:46:42.830Z,85.23
2022-10-10T12:49:19.656Z,84.96
2022-10-10T12:52:00.213Z,85.89
2022-10-10T12:54:37.202Z,85.02
2022-10-10T12:57:30.141Z,84.79
2022-10-10T13:00:01.185Z,84.43
2022-10-10T13:02:28.502Z,83.61
2022-10-10T13:04:58.794Z,82.21
2022-10-10T13:07:25.755Z,85.06
2022-10-10T13:09:54.303Z,84.87
2022-10-10T13:12:25.490Z,84.69
2022-10-10T13:14:51.925Z,84.07
2022-10-10T13:17:41.176Z,83.28
2022-10-10T13:20:31.918Z,83.58
2022-10-10T13:22:58.893Z,84.21
2022-10-10T13:25:26.269Z,85.60
2022-10-10T13:27:52.720Z,86.57
2022-10-10T13:30:21.708Z,86.28
2022-10-10T13:32:48.557Z,83.66
2022-10-10T13:35:19.840Z,83.48
2022-10-10T13:37:53.361Z,82.59
2022-10-10T13:40:20.299Z,84.93
2022-10-10T13:42:48.437Z,84.98
2022-10-10T13:45:30.318Z,85.96
2022-10-10T13:48:00.007Z,85.41
2022-10-10T13:50:35.469Z,86.06
2022-10-10T13:53:27.181Z,84.84
2022-10-10T13:56:08.859Z,83.73
2022-10-10T13:58:58.310Z,82.54
2022-10-10T14:01:34.398Z,82.20
2022-10-10T14:04:12.391Z,82.61
2022-10-10T14:07:14.554Z,84.21
2022-10-10T14:09:43.859Z,81.90
2022-10-10T14:12:51.471Z,80.64
2022-10-10T14:15:35.713Z,81.04
2022-10-10T14:18:03.065Z,81.65
2022-10-10T14:20:29.452Z,81.23
2022-10-10T14:22:55.846Z,83.22
2022-10-10T14:25:22.235Z,81.47
2022-10-10T14:27:48.660Z,81.09
2022-10-10T14:30:15.111Z,83.16
2022-10-10T14:32:41.486Z,84.04
2022-10-10T14:35:09.064Z,84.82
2022-10-10T14:37:38.497Z,85.96
2022-10-10T14:40:18.778Z,84.32
2022-10-10T14:42:45.134Z,86.48
2022-10-10T14:45:16.505Z,85.42
2022-10-10T14:47:42.955Z,85.45
2022-10-10T14:50:18.354Z,85.45
2022-10-10T14:52:44.724Z,82.69
2022-10-10T14:55:11.752Z,82.87
2022-10-10T14:57:39.004Z,82.44
2022-10-10T15:00:09.188Z,83.81
2022-10-10T15:02:35.679Z,82.28
2022-10-10T15:05:02.184Z,83.72
2022-10-10T15:07:28.641Z,84.75
2022-10-10T15:12:43.932Z,84.55
2022-10-10T15:15:12.327Z,84.20
2022-10-10T15:17:39.577Z,84.55
2022-10-10T15:20:09.088Z,85.24
2022-10-10T15:22:36.059Z,84.12
2022-10-10T15:25:02.635Z,84.44
2022-10-10T15:27:29.123Z,86.61
2022-10-10T15:29:55.651Z,88.56
2022-10-10T15:32:22.096Z,90.98
2022-10-10T15:34:49.273Z,93.28
2022-10-10T15:37:16.167Z,93.00
2022-10-10T15:39:44.696Z,93.66
2022-10-10T15:42:16.125Z,93.24
2022-10-10T15:44:46.778Z,92.13
2022-10-10T15:47:14.688Z,91.57
2022-10-10T15:49:41.760Z,90.38
2022-10-10T15:52:09.245Z,90.35
2022-10-10T15:54:35.714Z,91.25
2022-10-10T15:57:02.098Z,92.49
2022-10-10T15:59:28.782Z,93.55
2022-10-10T16:01:55.430Z,94.59
2022-10-10T16:04:22.605Z,96.32
2022-10-10T16:06:54.487Z,97.38
2022-10-10T16:09:28.524Z,98.59
2022-10-10T16:11:55.331Z,99.58
2022-10-10T16:14:21.687Z,100.00
2022-10-10T16:16:48.080Z,100.00
2022-10-10T16:19:14.882Z,100.00
2022-10-10T16:21:41.386Z,100.00
2022-10-10T16:24:09.347Z,100.00
2022-10-10T16:26:37.391Z,100.00
2022-10-10T16:29:05.974Z,100.00
2022-10-10T16:31:35.158Z,100.00
2022-10-10T16:34:01.576Z,100.00
2022-10-10T16:36:30.842Z,100.00
2022-10-10T16:38:58.192Z,100.00
2022-10-10T16:41:46.553Z,100.00
2022-10-10T16:44:13.591Z,100.00
2022-10-10T16:46:39.938Z,100.00
2022-10-10T16:49:06.315Z,100.00
2022-10-10T16:51:32.766Z,100.00
2022-10-10T16:54:01.581Z,100.00
2022-10-10T16:56:28.466Z,100.00
2022-10-10T16:58:54.958Z,100.00
2022-10-10T17:01:23.217Z,100.00
2022-10-10T17:03:51.008Z,100.00
2022-10-10T17:06:20.402Z,100.00
2022-10-10T17:08:52.626Z,100.00
2022-10-10T17:11:20.865Z,100.00
2022-10-10T17:13:48.451Z,100.00
2022-10-10T17:16:59.815Z,100.00
2022-10-10T17:19:07.828Z,100.00
2022-10-10T17:21:34.195Z,100.00
2022-10-10T17:24:00.585Z,100.00
2022-10-10T17:26:27.873Z,100.00
2022-10-10T17:28:56.058Z,100.00
2022-10-10T17:31:23.072Z,100.00
2022-10-10T17:33:53.980Z,100.00
2022-10-10T17:36:23.339Z,100.00
2022-10-10T17:38:50.355Z,100.00
2022-10-10T17:41:17.985Z,100.00
2022-10-10T17:43:44.717Z,100.00
2022-10-10T17:46:34.907Z,100.00
2022-10-10T17:49:00.625Z,100.00
2022-10-10T17:51:27.739Z,100.00
2022-10-10T17:53:54.148Z,100.00
2022-10-10T17:56:21.923Z,100.00
2022-10-10T17:58:49.504Z,100.00
2022-10-10T18:01:17.513Z,100.00
2022-10-10T18:03:44.433Z,100.00
2022-10-10T18:06:14.375Z,100.00
2022-10-10T18:08:41.124Z,100.00
2022-10-10T18:11:15.310Z,100.00
2022-10-10T18:13:41.663Z,100.00
2022-10-10T18:16:13.561Z,100.00
2022-10-10T18:18:41.401Z,100.00
2022-10-10T18:21:09.969Z,100.00
2022-10-10T18:23:36.757Z,100.00
2022-10-10T18:26:10.154Z,100.00
2022-10-10T18:28:39.923Z,100.00
2022-10-10T18:31:13.073Z,100.00
2022-10-10T18:33:40.309Z,100.00
2022-10-10T18:36:11.358Z,100.00
2022-10-10T18:38:37.877Z,100.00
2022-10-10T18:41:13.943Z,100.00
2022-10-10T18:43:41.692Z,100.00
2022-10-10T18:46:10.292Z,100.00
2022-10-10T18:48:38.515Z,100.00
2022-10-10T18:51:07.431Z,100.00
2022-10-10T18:53:38.389Z,100.00
2022-10-10T18:56:06.264Z,100.00
2022-10-10T18:58:34.404Z,100.00
2022-10-10T19:01:04.167Z,100.00
2022-10-10T19:03:30.772Z,100.00
2022-10-10T19:05:57.942Z,100.00
2022-10-10T19:08:24.545Z,100.00
2022-10-10T19:10:51.575Z,100.00
2022-10-10T19:13:18.801Z,100.00
2022-10-10T19:15:45.766Z,100.00
2022-10-10T19:18:12.162Z,100.00
2022-10-10T19:20:39.719Z,100.00
2022-10-10T19:23:06.530Z,100.00
2022-10-10T19:25:40.629Z,100.00
2022-10-10T19:28:07.615Z,100.00
2022-10-10T19:30:42.376Z,100.00
2022-10-10T19:33:09.681Z,100.00
2022-10-10T19:35:39.988Z,100.00
2022-10-10T19:38:08.001Z,100.00
2022-10-10T19:40:35.396Z,100.00
2022-10-10T19:43:02.240Z,100.00
2022-10-10T19:45:28.616Z,100.00
2022-10-10T19:47:55.029Z,100.00
2022-10-10T19:50:21.426Z,100.00
2022-10-10T19:52:47.971Z,100.00
2022-10-10T19:55:15.071Z,100.00
2022-10-10T19:57:41.417Z,100.00
2022-10-10T20:00:08.488Z,100.00
2022-10-10T20:02:37.921Z,100.00
2022-10-10T20:05:04.686Z,100.00
2022-10-10T20:07:31.387Z,100.00
2022-10-10T20:09:58.185Z,100.00
2022-10-10T20:12:24.672Z,100.00
2022-10-10T20:14:51.017Z,100.00
2022-10-10T20:17:17.410Z,100.00
2022-10-10T20:19:43.850Z,100.00
2022-10-10T20:22:10.597Z,100.00
2022-10-10T20:24:36.954Z,100.00
2022-10-10T20:27:03.658Z,100.00
2022-10-10T20:29:30.073Z,100.00
2022-10-10T20:31:56.517Z,100.00
2022-10-10T20:34:23.010Z,100.00
2022-10-10T20:36:49.453Z,100.00
2022-10-10T20:39:15.952Z,100.00
2022-10-10T20:41:42.528Z,100.00
2022-10-10T20:44:12.541Z,100.00
2022-10-10T20:46:41.413Z,100.00
2022-10-10T20:49:16.439Z,100.00
2022-10-10T20:51:48.102Z,100.00
2022-10-10T20:54:16.112Z,100.00
2022-10-10T20:56:44.129Z,100.00
2022-10-10T20:59:11.738Z,100.00
2022-10-10T21:01:38.456Z,100.00
2022-10-10T21:04:09.291Z,100.00
2022-10-10T21:06:37.285Z,100.00
2022-10-10T21:09:06.963Z,100.00
2022-10-10T21:11:34.490Z,100.00
2022-10-10T21:14:02.033Z,100.00
2022-10-10T21:16:34.127Z,100.00
2022-10-10T21:19:01.300Z,100.00
2022-10-10T21:21:30.762Z,100.00
2022-10-10T21:23:57.268Z,100.00
2022-10-10T21:26:25.342Z,100.00
2022-10-10T21:28:52.707Z,100.00
2022-10-10T21:31:22.726Z,100.00
2022-10-10T21:33:49.477Z,100.00
2022-10-10T21:36:17.663Z,100.00
2022-10-10T21:38:44.231Z,100.00
2022-10-10T21:41:16.264Z,100.00
2022-10-10T21:43:44.571Z,100.00
2022-10-10T21:46:14.886Z,100.00
2022-10-10T21:48:42.038Z,100.00
2022-10-10T21:51:09.205Z,100.00
2022-10-10T21:53:35.783Z,100.00
2022-10-10T21:56:07.766Z,100.00
2022-10-10T21:58:36.606Z,100.00
2022-10-10T22:01:16.056Z,100.00
2022-10-10T22:03:44.020Z,100.00
2022-10-10T22:06:13.142Z,100.00
2022-10-10T22:08:41.418Z,100.00
2022-10-10T22:11:12.330Z,100.00
2022-10-10T22:13:39.294Z,100.00
2022-10-10T22:16:07.401Z,100.00
2022-10-10T22:18:34.990Z,100.00
2022-10-10T22:21:02.559Z,100.00
2022-10-10T22:23:28.937Z,100.00
2022-10-10T22:25:55.307Z,100.00
2022-10-10T22:28:21.873Z,100.00
2022-10-10T22:30:48.362Z,100.00
2022-10-10T22:33:14.834Z,100.00
2022-10-10T22:35:41.327Z,100.00
2022-10-10T22:38:07.754Z,100.00
2022-10-10T22:40:34.271Z,100.00
2022-10-10T22:43:01.308Z,100.00
2022-10-10T22:45:28.950Z,100.00
2022-10-10T22:47:55.784Z,100.00
2022-10-10T22:50:22.261Z,100.00
2022-10-10T22:52:48.644Z,100.00
2022-10-10T22:55:18.497Z,100.00
2022-10-10T22:57:45.503Z,100.00
2022-10-10T23:00:12.512Z,100.00
2022-10-10T23:02:38.977Z,100.00
2022-10-10T23:05:05.934Z,100.00
2022-10-10T23:07:32.421Z,100.00
2022-10-10T23:09:58.905Z,100.00
2022-10-10T23:12:25.307Z,100.00
2022-10-10T23:14:51.726Z,100.00
2022-10-10T23:17:18.158Z,100.00
2022-10-10T23:19:44.561Z,100.00
2022-10-10T23:22:12.725Z,100.00
2022-10-10T23:24:39.798Z,100.00
2022-10-10T23:27:06.286Z,100.00
2022-10-10T23:29:32.918Z,100.00
2022-10-10T23:31:59.329Z,100.00
2022-10-10T23:34:25.733Z,100.00
2022-10-10T23:36:52.150Z,100.00
2022-10-10T23:39:18.755Z,100.00
2022-10-10T23:41:45.129Z,100.00
2022-10-10T23:44:11.553Z,100.00
2022-10-10T23:46:37.942Z,100.00
2022-10-10T23:49:04.324Z,100.00
2022-10-10T23:51:30.691Z,100.00
2022-10-10T23:53:57.132Z,100.00
2022-10-10T23:56:23.630Z,100.00
2022-10-10T23:58:50.114Z,100.00
